Weather History for Marshall, MN

Change the Weather History Date:

Sunday, December 9, 2012

  Actual Average Record
Temperature  
Mean Temperature 18 °F -  
Max Temperature 33 °F 27 °F 55 °F (1990)
Min Temperature 3 °F 12 °F -18 °F (1977)
Degree Days  
Heating Degree Days 47    
Moisture  
Dew Point 19 °F    
Average Humidity 90    
Maximum Humidity 100    
Minimum Humidity 80    
Precipitation  
Precipitation 0.31 in - - ()
Sea Level Pressure  
Sea Level Pressure 29.89 in    
Wind  
Wind Speed 16 mph (NNE)    
Max Wind Speed 34 mph    
Max Gust Speed 48 mph    
Visibility 2 miles    
Events      
Averages and records for this station are not official NWS values.
T = Trace of Precipitation, MM = Missing Value Source: NWS Daily Summary

Daily Weather History Graph

Daily Weather History Graph

Search for Another Location

Airport:

Trip Planner

Search our weather history database for the weather conditions in past years. The results will help you decide how hot, cold, wet, or windy it might be!

Date:

Astronomy

Dec. 09, 2012 Rise Set
Actual Time 7:48 AM CST 4:43 PM CST
Civil Twilight 7:14 AM CST 5:16 PM CST
Nautical Twilight 6:38 AM CST 5:53 PM CST
Astronomical Twilight 6:03 AM CST 6:28 PM CST
Moon 3:14 AM CST (12/9) 1:57 PM CST (12/9)
Length of Visible Light 10h 01m
Length of Day
8h 55m
Waning Crescent, 18% of the Moon is Illuminated
Dec 9
Waning Crescent
Dec 13
New
Dec 19
First Quarter
Dec 28
Full
Jan 4
Last Quarter

Hourly Weather History & Observations

Time (CST) Temp. Windchill Dew Point Humidity Pressure Visibility Wind Dir Wind Speed Gust Speed Precip Events Conditions
12:15 AM 32.0 °F 22.5 °F 28.4 °F 87% 29.83 in 7.0 mi SE 12.7 mph - 0.01 in   Overcast
12:35 AM 33.8 °F 24.8 °F 28.4 °F 81% 29.84 in 5.0 mi SSE 12.7 mph - 0.02 in   Overcast
12:55 AM 33.8 °F 27.0 °F 28.4 °F 81% 29.85 in 5.0 mi SSE 8.1 mph - 0.04 in   Overcast
1:15 AM 33.8 °F 27.0 °F 28.4 °F 81% 29.84 in 3.0 mi SE 8.1 mph - 0.01 in   Overcast
1:35 AM 33.8 °F 27.7 °F 28.4 °F 81% 29.84 in 2.0 mi SE 6.9 mph - 0.02 in   Overcast
1:55 AM 33.8 °F 27.0 °F 30.2 °F 87% 29.83 in 2.5 mi SE 8.1 mph - 0.03 in   Overcast
2:15 AM 33.8 °F 27.0 °F 30.2 °F 87% 29.83 in 2.5 mi SE 8.1 mph - 0.01 in   Overcast
2:35 AM 33.8 °F 27.7 °F 30.2 °F 87% 29.83 in 1.2 mi ESE 6.9 mph - 0.01 in   Overcast
2:55 AM 33.8 °F 27.7 °F 30.2 °F 87% 29.83 in 2.0 mi ESE 6.9 mph - 0.02 in   Overcast
3:15 AM 33.8 °F 27.0 °F 30.2 °F 87% 29.82 in 2.0 mi ESE 8.1 mph - 0.01 in   Overcast
3:35 AM 33.8 °F 25.8 °F 28.4 °F 81% 29.81 in 1.8 mi ESE 10.4 mph - 0.02 in   Overcast
3:55 AM 33.8 °F 26.4 °F 30.2 °F 87% 29.80 in 2.0 mi ESE 9.2 mph - 0.04 in   Overcast
4:15 AM 33.8 °F 25.8 °F 30.2 °F 87% 29.79 in 1.8 mi ESE 10.4 mph - 0.01 in   Overcast
4:35 AM 33.8 °F 26.4 °F 30.2 °F 87% 29.80 in 1.2 mi ESE 9.2 mph - 0.01 in   Overcast
4:55 AM 33.8 °F 25.8 °F 30.2 °F 87% 29.79 in 1.5 mi ESE 10.4 mph - 0.01 in   Overcast
5:15 AM 33.8 °F 25.3 °F 28.4 °F 81% 29.78 in 1.5 mi ESE 11.5 mph - 0.01 in   Overcast
5:35 AM 33.8 °F 25.8 °F 28.4 °F 81% 29.78 in 1.0 mi East 10.4 mph - 0.01 in   Overcast
5:55 AM 33.8 °F 25.8 °F 28.4 °F 81% 29.78 in 1.5 mi ESE 10.4 mph - 0.01 in   Overcast
6:15 AM 33.8 °F 26.4 °F 30.2 °F 87% 29.79 in 1.2 mi ESE 9.2 mph - N/A   Overcast
6:35 AM 33.8 °F 25.8 °F 28.4 °F 81% 29.78 in 1.2 mi ESE 10.4 mph - 0.01 in   Overcast
6:55 AM 32.0 °F 23.6 °F 30.2 °F 93% 29.78 in 1.5 mi ESE 10.4 mph - 0.01 in   Overcast
7:15 AM 32.0 °F 23.6 °F 30.2 °F 93% 29.78 in 1.5 mi East 10.4 mph - 0.01 in   Overcast
7:35 AM 32.0 °F 24.2 °F 30.2 °F 93% 29.78 in 1.5 mi East 9.2 mph - 0.03 in   Overcast
7:55 AM 33.8 °F 25.8 °F 30.2 °F 87% 29.78 in 1.0 mi East 10.4 mph - 0.05 in   Overcast
8:15 AM 33.8 °F 25.8 °F 30.2 °F 87% 29.78 in 1.2 mi ESE 10.4 mph - 0.01 in   Overcast
8:35 AM 32.0 °F 23.6 °F 28.4 °F 87% 29.78 in 0.8 mi East 10.4 mph - 0.03 in   Overcast
8:55 AM 32.0 °F 23.0 °F 28.4 °F 87% 29.78 in 1.0 mi East 11.5 mph - 0.04 in   Overcast
9:15 AM 32.0 °F 23.6 °F 28.4 °F 87% 29.78 in 1.0 mi East 10.4 mph - N/A   Overcast
9:35 AM 32.0 °F 24.2 °F 30.2 °F 93% 29.78 in 1.2 mi East 9.2 mph - 0.01 in   Overcast
9:55 AM 32.0 °F 23.0 °F 30.2 °F 93% 29.78 in 1.5 mi East 11.5 mph - 0.01 in   Overcast
10:15 AM 33.8 °F 26.4 °F 30.2 °F 87% 29.79 in 1.8 mi East 9.2 mph - 0.02 in   Overcast
10:35 AM 32.0 °F 24.2 °F 30.2 °F 93% 29.79 in 1.5 mi East 9.2 mph - 0.04 in   Overcast
10:55 AM 33.8 °F 27.0 °F 30.2 °F 87% 29.79 in 1.8 mi ENE 8.1 mph - 0.05 in   Overcast
11:15 AM 32.0 °F 21.6 °F 28.4 °F 87% 29.79 in 1.2 mi NNE 15.0 mph - N/A   Overcast
11:35 AM 32.0 °F 20.8 °F 26.6 °F 80% 29.78 in 1.0 mi NNE 17.3 mph - N/A   Overcast
11:55 AM 30.2 °F 17.1 °F 28.4 °F 93% 29.79 in 0.5 mi NNW 21.9 mph - N/A   Overcast
12:15 PM 24.8 °F 8.4 °F 24.8 °F 100% 29.80 in 0.2 mi NNW 27.6 mph 34.5 mph N/A   Overcast
12:35 PM 19.4 °F -0.0 °F 17.6 °F 93% 29.81 in 0.2 mi NNW 32.2 mph 36.8 mph N/A   Overcast
12:55 PM 17.6 °F -2.8 °F 15.8 °F 93% 29.82 in 0.2 mi NNW 33.4 mph 39.1 mph N/A   Overcast
1:15 PM 15.8 °F -5.0 °F 15.8 °F 100% 29.83 in 0.2 mi NNW 32.2 mph 39.1 mph N/A   Overcast
1:35 PM 15.8 °F -5.5 °F 14.0 °F 93% 29.84 in 0.2 mi NNW 34.5 mph 42.6 mph N/A   Overcast
1:55 PM 14.0 °F -7.4 °F 12.2 °F 93% 29.85 in 0.2 mi NNW 32.2 mph 44.9 mph N/A   Overcast
2:15 PM 12.2 °F -10.2 °F 12.2 °F 100% 29.86 in 0.2 mi NNW 33.4 mph 40.3 mph N/A   Overcast
2:35 PM 12.2 °F -9.6 °F 10.4 °F 92% 29.87 in 0.2 mi NNW 31.1 mph 41.4 mph N/A   Overcast
2:55 PM 10.4 °F -13.0 °F 10.4 °F 100% 29.89 in 0.2 mi NNW 34.5 mph 40.3 mph N/A   Overcast
3:15 PM 10.4 °F -12.3 °F 10.4 °F 100% 29.90 in 0.2 mi NNW 32.2 mph 41.4 mph N/A   Overcast
3:35 PM 10.4 °F -13.0 °F 8.6 °F 92% 29.92 in 0.2 mi NNW 34.5 mph 40.3 mph N/A   Overcast
3:55 PM 10.4 °F -12.7 °F 10.4 °F 100% 29.93 in 0.2 mi NNW 33.4 mph 41.4 mph N/A   Overcast
4:15 PM 10.4 °F -12.7 °F 8.6 °F 92% 29.95 in 0.2 mi NNW 33.4 mph 38.0 mph N/A   Overcast
4:35 PM 8.6 °F -13.8 °F 8.6 °F 100% 29.96 in 0.2 mi NNW 28.8 mph 48.3 mph N/A   Overcast
4:55 PM 8.6 °F -14.8 °F 6.8 °F 92% 29.98 in 0.2 mi NNW 32.2 mph 42.6 mph N/A   Overcast
5:15 PM 8.6 °F -13.8 °F 6.8 °F 92% 29.99 in 0.2 mi NNW 28.8 mph 38.0 mph N/A   Overcast
5:35 PM 8.6 °F -13.4 °F 6.8 °F 92% 30.00 in 0.5 mi NNW 27.6 mph 42.6 mph N/A   Overcast
5:55 PM 8.6 °F -14.8 °F 6.8 °F 92% 30.00 in 0.5 mi NNW 32.2 mph 38.0 mph N/A   Overcast
6:15 PM 8.6 °F -14.5 °F 6.8 °F 92% 30.01 in 0.5 mi NNW 31.1 mph 43.7 mph N/A   Overcast
6:35 PM 6.8 °F -16.2 °F 5.0 °F 92% 30.01 in 0.5 mi NNW 28.8 mph 40.3 mph N/A   Overcast
6:55 PM 6.8 °F -16.6 °F 5.0 °F 92% 30.03 in 0.5 mi NNW 29.9 mph 41.4 mph N/A   Overcast
7:15 PM 6.8 °F -16.6 °F 5.0 °F 92% 30.03 in 0.5 mi NNW 29.9 mph 46.0 mph N/A   Overcast
7:35 PM 6.8 °F -16.6 °F 5.0 °F 92% 30.04 in 0.8 mi NNW 29.9 mph 39.1 mph N/A   Overcast
7:55 PM 6.8 °F -14.3 °F 5.0 °F 92% 30.05 in 0.8 mi NNW 23.0 mph 41.4 mph N/A   Overcast
8:15 PM 6.8 °F -17.6 °F 5.0 °F 92% 30.05 in 1.0 mi NNW 33.4 mph 39.1 mph N/A   Overcast
8:35 PM 6.8 °F -16.6 °F 5.0 °F 92% 30.06 in 0.8 mi NNW 29.9 mph 36.8 mph N/A   Overcast
8:55 PM 6.8 °F -15.5 °F 3.2 °F 85% 30.06 in 0.8 mi NNW 26.5 mph 40.3 mph N/A   Overcast
9:15 PM 5.0 °F -18.7 °F 3.2 °F 92% 30.06 in 0.5 mi NNW 28.8 mph 39.1 mph N/A   Overcast
9:35 PM 5.0 °F -16.2 °F 3.2 °F 92% 30.07 in 1.0 mi NNW 21.9 mph 36.8 mph N/A   Overcast
9:55 PM 5.0 °F -16.2 °F 3.2 °F 92% 30.07 in 1.2 mi NNW 21.9 mph 34.5 mph N/A   Overcast
10:15 PM 5.0 °F -17.9 °F 3.2 °F 92% 30.07 in 2.0 mi NNW 26.5 mph 31.1 mph N/A   Overcast
10:35 PM 5.0 °F -15.2 °F 3.2 °F 92% 30.07 in 4.0 mi NW 19.6 mph 29.9 mph N/A   Overcast
10:55 PM 3.2 °F -19.5 °F 3.2 °F 100% 30.06 in 5.0 mi NW 24.2 mph 29.9 mph N/A   Overcast
11:15 PM 3.2 °F -19.5 °F 1.4 °F 92% 30.07 in 7.0 mi NW 24.2 mph 27.6 mph N/A   Overcast
11:35 PM 3.2 °F -19.9 °F 1.4 °F 92% 30.06 in 4.0 mi NNW 25.3 mph 29.9 mph N/A   Overcast
11:55 PM 3.2 °F -18.6 °F 1.4 °F 92% 30.07 in 5.0 mi NW 21.9 mph 29.9 mph N/A   Overcast